createdAt,value
2018-11-22T12:16:12.369Z,4.30
2018-11-22T12:18:39.837Z,4.30
2018-11-22T12:21:07.407Z,4.30
2018-11-22T12:23:34.874Z,4.30
2018-11-22T12:26:02.328Z,4.30
2018-11-22T12:28:29.813Z,4.30
2018-11-22T12:30:57.298Z,4.40
2018-11-22T12:33:24.760Z,4.40
2018-11-22T12:35:52.221Z,4.40
2018-11-22T12:38:19.709Z,4.40
2018-11-22T12:40:47.971Z,4.40
2018-11-22T12:43:15.434Z,4.40
2018-11-22T12:45:43.003Z,4.40
2018-11-22T12:48:10.624Z,4.40
2018-11-22T12:50:38.091Z,4.30
2018-11-22T12:53:05.551Z,4.40
2018-11-22T12:55:33.022Z,4.40
2018-11-22T12:58:00.481Z,4.40
2018-11-22T13:00:27.957Z,4.40
2018-11-22T13:02:55.517Z,4.40
2018-11-22T13:05:22.977Z,4.40
2018-11-22T13:07:50.543Z,4.40
2018-11-22T13:10:17.996Z,4.40
2018-11-22T13:12:45.485Z,4.30
2018-11-22T13:15:12.953Z,4.40
2018-11-22T13:17:40.405Z,4.40
2018-11-22T13:20:08.169Z,4.50
2018-11-22T13:22:35.625Z,4.50
2018-11-22T13:25:04.000Z,4.50
2018-11-22T13:27:31.473Z,4.50
2018-11-22T13:29:58.993Z,4.50
2018-11-22T13:32:26.458Z,4.50
2018-11-22T13:34:53.935Z,4.50
2018-11-22T13:37:21.398Z,4.50
2018-11-22T13:39:48.867Z,4.60
2018-11-22T13:42:16.346Z,4.60
2018-11-22T13:44:43.911Z,4.60
2018-11-22T13:47:12.366Z,4.70
2018-11-22T13:49:39.816Z,4.70
2018-11-22T13:52:07.318Z,4.70
2018-11-22T13:54:34.789Z,4.70
2018-11-22T13:57:02.263Z,4.60
2018-11-22T13:59:30.505Z,4.70
2018-11-22T14:01:57.965Z,4.60
2018-11-22T14:04:25.416Z,4.70
2018-11-22T14:06:52.913Z,4.70
2018-11-22T14:09:20.378Z,4.70
2018-11-22T14:11:47.848Z,4.70
2018-11-22T14:14:15.394Z,4.70
2018-11-22T14:16:42.848Z,4.70
2018-11-22T14:19:10.322Z,4.70
2018-11-22T14:21:37.789Z,4.70
2018-11-22T14:24:05.263Z,4.70
2018-11-22T14:26:32.730Z,4.70
2018-11-22T14:29:00.990Z,4.70
2018-11-22T14:31:28.439Z,4.70
2018-11-22T14:33:56.075Z,4.70
2018-11-22T14:36:23.664Z,4.70
2018-11-22T14:38:51.136Z,4.60
2018-11-22T14:41:18.614Z,4.70
2018-11-22T14:43:47.576Z,4.60
2018-11-22T14:46:15.049Z,4.60
2018-11-22T14:48:42.632Z,4.50
2018-11-22T14:51:10.087Z,4.50
2018-11-22T14:53:37.561Z,4.60
2018-11-22T14:56:05.299Z,4.50
2018-11-22T14:58:32.545Z,4.50
2018-11-22T15:01:00.019Z,4.50
2018-11-22T15:03:27.488Z,4.50
2018-11-22T15:05:55.053Z,4.50
2018-11-22T15:08:22.627Z,4.50
2018-11-22T15:10:50.096Z,4.50
2018-11-22T15:13:18.336Z,4.50
2018-11-22T15:15:45.805Z,4.50
2018-11-22T15:18:13.252Z,4.50
2018-11-22T15:20:40.748Z,4.50
2018-11-22T15:23:08.212Z,4.50
2018-11-22T15:25:35.680Z,4.50
2018-11-22T15:28:04.653Z,4.50
2018-11-22T15:30:32.434Z,4.50
2018-11-22T15:32:59.996Z,4.50
2018-11-22T15:35:27.458Z,4.60
2018-11-22T15:37:55.030Z,5.10
2018-11-22T15:40:22.505Z,5.50
2018-11-22T15:42:50.731Z,5.70
2018-11-22T15:45:18.238Z,5.70
2018-11-22T15:47:45.691Z,5.90
2018-11-22T15:50:13.151Z,6.10
2018-11-22T15:52:40.611Z,5.60
2018-11-22T15:55:08.178Z,5.10
2018-11-22T15:57:35.642Z,4.90
2018-11-22T16:00:04.620Z,4.70
2018-11-22T16:02:32.091Z,4.70
2018-11-22T16:05:00.494Z,4.60
2018-11-22T16:07:27.981Z,4.50
2018-11-22T16:09:56.233Z,4.40
2018-11-22T16:12:23.698Z,4.40
2018-11-22T16:14:51.274Z,4.40
2018-11-22T16:17:19.506Z,4.50
2018-11-22T16:19:46.996Z,4.50
2018-11-22T16:22:14.686Z,4.50
2018-11-22T16:24:42.909Z,4.40
2018-11-22T16:27:10.406Z,4.40
2018-11-22T16:29:37.916Z,4.40
2018-11-22T16:32:05.380Z,4.40
2018-11-22T16:34:32.892Z,4.40
2018-11-22T16:37:00.361Z,4.40
2018-11-22T16:39:28.625Z,4.40
2018-11-22T16:41:56.101Z,4.40
2018-11-22T16:44:23.562Z,4.40
2018-11-22T16:46:51.105Z,4.40
2018-11-22T16:49:18.570Z,4.40
2018-11-22T16:51:46.140Z,4.40
2018-11-22T16:54:13.702Z,4.40
2018-11-22T16:56:41.177Z,4.40
2018-11-22T16:59:09.399Z,4.40
2018-11-22T17:01:36.875Z,4.40
2018-11-22T17:04:04.334Z,4.40
2018-11-22T17:06:31.792Z,4.30
2018-11-22T17:08:59.290Z,4.30
2018-11-22T17:11:26.849Z,4.30
2018-11-22T17:13:54.328Z,4.40
2018-11-22T17:16:21.793Z,4.30
2018-11-22T17:18:49.348Z,4.40
2018-11-22T17:21:16.905Z,4.40
2018-11-22T17:23:44.380Z,4.40
2018-11-22T17:26:11.844Z,4.40
2018-11-22T17:28:39.391Z,4.40
2018-11-22T17:31:06.846Z,4.40
2018-11-22T17:33:34.421Z,4.40
2018-11-22T17:36:02.912Z,4.40
2018-11-22T17:38:30.372Z,4.30
2018-11-22T17:40:57.843Z,4.30
2018-11-22T17:43:25.313Z,4.20
2018-11-22T17:45:52.854Z,4.30
2018-11-22T17:48:20.305Z,4.30
2018-11-22T17:50:47.773Z,4.20
2018-11-22T17:53:15.240Z,4.20
2018-11-22T17:55:42.722Z,4.20
2018-11-22T17:58:10.956Z,4.30
2018-11-22T18:00:38.422Z,4.30
2018-11-22T18:03:05.897Z,4.30
2018-11-22T18:05:33.370Z,4.30
2018-11-22T18:08:00.838Z,4.20
2018-11-22T18:10:28.319Z,4.20
2018-11-22T18:12:56.551Z,4.20
2018-11-22T18:15:24.021Z,4.20
2018-11-22T18:17:51.500Z,4.20
2018-11-22T18:20:18.977Z,4.20
2018-11-22T18:22:47.224Z,4.20
2018-11-22T18:25:14.765Z,4.20
2018-11-22T18:27:42.260Z,4.20
2018-11-22T18:30:09.742Z,4.30
2018-11-22T18:32:37.286Z,4.30
2018-11-22T18:35:04.859Z,4.20
2018-11-22T18:37:32.423Z,4.20
2018-11-22T18:39:59.883Z,4.20
2018-11-22T18:42:27.348Z,4.20
2018-11-22T18:44:54.832Z,4.20
2018-11-22T18:47:23.092Z,4.20
2018-11-22T18:49:50.562Z,4.20
2018-11-22T18:52:18.113Z,4.20
2018-11-22T18:54:46.390Z,4.20
2018-11-22T18:57:13.853Z,4.20
2018-11-22T18:59:41.366Z,4.20
2018-11-22T19:02:08.825Z,4.30
2018-11-22T19:04:36.296Z,4.20
2018-11-22T19:07:05.844Z,4.10
2018-11-22T19:09:33.297Z,4.10
2018-11-22T19:12:00.874Z,4.20
2018-11-22T19:14:28.322Z,4.10
2018-11-22T19:16:55.897Z,4.20
2018-11-22T19:19:23.369Z,4.20
2018-11-22T19:21:50.933Z,4.20
2018-11-22T19:24:18.392Z,4.20
2018-11-22T19:26:45.875Z,4.20
2018-11-22T19:29:14.094Z,4.10
2018-11-22T19:31:41.581Z,4.10
2018-11-22T19:34:09.056Z,4.10
2018-11-22T19:36:37.334Z,4.20
2018-11-22T19:39:05.555Z,4.20
2018-11-22T19:41:33.084Z,4.10
2018-11-22T19:44:00.541Z,4.20
2018-11-22T19:46:28.101Z,4.20
2018-11-22T19:48:56.343Z,4.20
2018-11-22T19:51:23.800Z,4.20
2018-11-22T19:53:51.265Z,4.20
2018-11-22T19:56:18.774Z,4.20
2018-11-22T19:58:46.243Z,4.20
2018-11-22T20:01:13.795Z,4.20
2018-11-22T20:03:41.260Z,4.20
2018-11-22T20:06:08.732Z,4.30
2018-11-22T20:08:36.961Z,4.20
2018-11-22T20:11:04.433Z,4.20
2018-11-22T20:13:31.931Z,4.20
2018-11-22T20:15:59.400Z,4.10
2018-11-22T20:18:26.863Z,4.20
2018-11-22T20:20:55.101Z,4.10
2018-11-22T20:23:22.682Z,4.10
2018-11-22T20:25:50.165Z,4.20
2018-11-22T20:28:18.388Z,4.10
2018-11-22T20:30:45.870Z,4.10
2018-11-22T20:33:13.325Z,4.10
2018-11-22T20:35:41.111Z,4.10
2018-11-22T20:38:08.685Z,4.20
2018-11-22T20:40:36.921Z,4.20
2018-11-22T20:43:04.733Z,4.10
2018-11-22T20:45:32.201Z,4.10
2018-11-22T20:48:00.474Z,4.20
2018-11-22T20:50:28.037Z,4.20
2018-11-22T20:52:55.501Z,4.20
2018-11-22T20:55:22.960Z,4.20
2018-11-22T20:57:51.203Z,4.20
2018-11-22T21:00:18.665Z,4.20
2018-11-22T21:02:46.164Z,4.20
2018-11-22T21:05:13.633Z,4.20
2018-11-22T21:07:41.886Z,4.20
2018-11-22T21:10:09.350Z,4.20
2018-11-22T21:12:36.826Z,4.20
2018-11-22T21:15:04.397Z,4.20
2018-11-22T21:17:31.964Z,4.10
2018-11-22T21:20:00.956Z,4.10
2018-11-22T21:22:28.428Z,4.10
2018-11-22T21:24:56.698Z,4.10
2018-11-22T21:27:24.264Z,4.10
2018-11-22T21:29:51.759Z,4.10
2018-11-22T21:32:20.006Z,4.10
2018-11-22T21:34:47.816Z,4.10
2018-11-22T21:37:16.152Z,4.10
2018-11-22T21:39:43.620Z,4.00
2018-11-22T21:42:11.096Z,4.00
2018-11-22T21:44:39.367Z,3.90
2018-11-22T21:47:06.835Z,3.90
2018-11-22T21:49:34.297Z,3.90
2018-11-22T21:52:01.755Z,3.90
2018-11-22T21:54:29.307Z,3.90
2018-11-22T21:56:56.897Z,4.00
2018-11-22T21:59:25.128Z,4.00
2018-11-22T22:01:52.594Z,4.00
2018-11-22T22:04:20.065Z,3.90
2018-11-22T22:06:47.537Z,3.80
2018-11-22T22:09:15.008Z,3.80
2018-11-22T22:11:42.476Z,3.80
2018-11-22T22:14:09.934Z,3.80
2018-11-22T22:16:37.593Z,3.80
2018-11-22T22:19:05.066Z,3.80
2018-11-22T22:21:32.546Z,3.80
2018-11-22T22:24:00.783Z,3.80
2018-11-22T22:26:28.263Z,3.80
2018-11-22T22:28:56.023Z,3.70
2018-11-22T22:31:23.479Z,3.80
2018-11-22T22:33:51.709Z,3.80
2018-11-22T22:36:19.190Z,3.80
2018-11-22T22:38:46.652Z,3.90
2018-11-22T22:41:14.116Z,3.80
2018-11-22T22:43:41.583Z,3.90
2018-11-22T22:46:09.053Z,3.90
2018-11-22T22:48:36.534Z,3.90
2018-11-22T22:51:03.992Z,3.80
2018-11-22T22:53:31.465Z,3.90
2018-11-22T22:55:58.918Z,3.80
2018-11-22T22:58:27.902Z,3.70
2018-11-22T23:00:55.378Z,3.70
2018-11-22T23:03:22.849Z,3.70
2018-11-22T23:05:51.818Z,3.70
2018-11-22T23:08:19.284Z,3.70
2018-11-22T23:10:46.768Z,3.60
2018-11-22T23:13:14.238Z,3.60
2018-11-22T23:15:41.783Z,3.60
2018-11-22T23:18:09.348Z,3.50
2018-11-22T23:20:36.974Z,3.50
2018-11-22T23:23:04.481Z,3.60
2018-11-22T23:25:31.933Z,3.60
2018-11-22T23:27:59.505Z,3.50
2018-11-22T23:30:28.476Z,3.40
2018-11-22T23:32:56.599Z,3.40
2018-11-22T23:35:24.209Z,3.40
2018-11-22T23:37:51.705Z,3.40
2018-11-22T23:40:19.183Z,3.40
2018-11-22T23:42:47.409Z,3.40
2018-11-22T23:45:14.908Z,3.40
2018-11-22T23:47:42.364Z,3.20
2018-11-22T23:50:09.939Z,3.40
2018-11-22T23:52:37.405Z,3.30
2018-11-22T23:55:05.636Z,3.40
2018-11-22T23:57:33.088Z,3.30
